Time;durP1;ratioP1;P1;durP2;ratioP2;P2;SDS_P1;SDS_P2;PMS_P1;PMS_P2;Temp;Humidity;BMP_temperature;BMP_pressure;BME280_temperature;BME280_humidity;BME280_pressure;Samples;Min_cycle;Max_cycle;Signal;HPM_P1;HPM_P2
2021/07/06 00:01:04;;;;;;;8.10;7.30;;;18.00;99.90;;;;;;5040154;28;20309;-65
2021/07/06 00:03:33;;;;;;;7.33;6.73;;;18.00;99.90;;;;;;5028792;28;20238;-65
2021/07/06 00:06:02;;;;;;;8.27;6.70;;;18.00;99.90;;;;;;5028613;28;20231;-65
2021/07/06 00:08:32;;;;;;;8.83;6.33;;;18.10;99.90;;;;;;5028686;28;20583;-65
2021/07/06 00:11:02;;;;;;;6.80;6.20;;;18.00;99.90;;;;;;5035818;28;20248;-65
2021/07/06 00:13:33;;;;;;;6.40;5.90;;;18.00;99.90;;;;;;5048311;28;20242;-65
2021/07/06 00:16:02;;;;;;;8.47;5.90;;;18.00;99.90;;;;;;5040971;28;20242;-65
2021/07/06 00:18:32;;;;;;;7.10;6.07;;;18.00;99.90;;;;;;5028929;28;20242;-65
2021/07/06 00:21:01;;;;;;;6.43;5.73;;;17.90;99.90;;;;;;5035818;28;20263;-65
2021/07/06 00:23:30;;;;;;;6.43;5.77;;;17.90;99.90;;;;;;5048531;28;20572;-65
2021/07/06 00:26:00;;;;;;;7.47;6.77;;;18.00;99.90;;;;;;5048318;28;20242;-64
2021/07/06 00:28:29;;;;;;;6.83;6.13;;;17.90;99.90;;;;;;5048738;28;20724;-65
2021/07/06 00:31:01;;;;;;;6.47;5.87;;;17.90;99.90;;;;;;5040766;28;20284;-65
2021/07/06 00:33:30;;;;;;;7.03;6.33;;;17.90;99.90;;;;;;5028432;28;20635;-65
2021/07/06 00:36:01;;;;;;;7.07;6.30;;;17.90;99.90;;;;;;5035702;28;20245;-65
2021/07/06 00:38:31;;;;;;;6.13;5.43;;;17.90;99.90;;;;;;5036046;28;20234;-65
2021/07/06 00:41:02;;;;;;;6.30;5.67;;;17.90;99.90;;;;;;5034183;28;20288;-65
2021/07/06 00:43:35;;;;;;;5.33;4.93;;;17.90;99.90;;;;;;5028184;28;20242;-65
2021/07/06 00:46:07;;;;;;;5.70;5.20;;;17.90;99.90;;;;;;5036178;28;20292;-65
2021/07/06 00:48:36;;;;;;;6.53;5.37;;;17.90;99.90;;;;;;5048399;28;20698;-65
2021/07/06 00:51:05;;;;;;;5.77;5.13;;;17.90;99.90;;;;;;5047246;28;20248;-65
2021/07/06 00:53:34;;;;;;;5.73;4.80;;;17.90;99.90;;;;;;5047941;28;20232;-65
2021/07/06 00:56:04;;;;;;;5.50;4.93;;;17.90;99.90;;;;;;5039871;28;20602;-65
2021/07/06 00:58:34;;;;;;;5.93;5.10;;;17.90;99.90;;;;;;5028187;28;20644;-65
2021/07/06 01:01:15;;;;;;;4.70;4.30;;;17.90;99.90;;;;;;5036757;28;20312;-65
2021/07/06 01:03:45;;;;;;;4.57;4.27;;;17.90;99.90;;;;;;5047551;28;20245;-65
2021/07/06 01:06:15;;;;;;;5.20;4.70;;;17.90;99.90;;;;;;5038362;28;20652;-65
2021/07/06 01:08:46;;;;;;;4.77;4.47;;;17.90;99.90;;;;;;5027704;28;20249;-65
2021/07/06 01:11:17;;;;;;;4.53;4.10;;;17.90;99.90;;;;;;5036847;28;20240;-65
2021/07/06 01:13:47;;;;;;;5.00;4.57;;;17.90;99.90;;;;;;5040850;28;20248;-65
2021/07/06 01:16:18;;;;;;;4.27;3.97;;;17.90;99.90;;;;;;5027529;28;20287;-65
2021/07/06 01:18:47;;;;;;;6.53;4.57;;;17.90;99.90;;;;;;5028164;28;20709;-65
2021/07/06 01:21:17;;;;;;;5.40;4.10;;;17.90;99.90;;;;;;5034477;28;20231;-65
2021/07/06 01:23:48;;;;;;;4.97;4.03;;;17.90;99.90;;;;;;5026738;28;20246;-65
2021/07/06 01:26:17;;;;;;;4.50;4.10;;;17.80;99.90;;;;;;5026580;28;20233;-65
2021/07/06 01:28:47;;;;;;;5.07;4.10;;;17.70;99.90;;;;;;5027450;28;20248;-65
2021/07/06 01:31:16;;;;;;;9.47;4.10;;;17.70;99.90;;;;;;5026826;28;20651;-65
2021/07/06 01:33:46;;;;;;;7.17;4.40;;;17.70;99.90;;;;;;5027758;28;20257;-65
2021/07/06 01:36:17;;;;;;;4.43;4.00;;;17.80;99.90;;;;;;5036441;28;20321;-65
2021/07/06 01:38:48;;;;;;;5.23;3.80;;;17.80;99.90;;;;;;5047016;28;20664;-65
2021/07/06 01:41:18;;;;;;;4.47;4.07;;;17.70;99.90;;;;;;5036895;28;20716;-65
2021/07/06 01:43:48;;;;;;;5.10;3.57;;;17.80;99.90;;;;;;5027272;28;20269;-65
2021/07/06 01:46:17;;;;;;;4.53;4.13;;;17.80;99.90;;;;;;5036748;28;20233;-65
2021/07/06 01:48:46;;;;;;;4.30;3.90;;;17.80;99.90;;;;;;5047689;28;20245;-65
2021/07/06 01:51:16;;;;;;;4.40;3.83;;;17.80;99.90;;;;;;5036960;28;20239;-65
2021/07/06 01:53:47;;;;;;;3.90;3.50;;;17.70;99.90;;;;;;5027164;28;20261;-65
2021/07/06 01:56:17;;;;;;;6.03;4.00;;;17.70;99.90;;;;;;5036662;28;20762;-65
2021/07/06 01:58:46;;;;;;;4.93;4.30;;;17.70;99.90;;;;;;5047638;28;20332;-65
2021/07/06 02:01:15;;;;;;;3.90;3.47;;;17.70;99.90;;;;;;5036673;28;20302;-65
2021/07/06 02:03:43;;;;;;;4.87;3.70;;;17.80;99.90;;;;;;5027736;28;20268;-65
2021/07/06 02:06:12;;;;;;;4.13;3.73;;;17.80;99.90;;;;;;5036043;28;20324;-65
2021/07/06 02:08:40;;;;;;;4.87;3.83;;;17.80;99.90;;;;;;5047208;28;20726;-65
2021/07/06 02:11:09;;;;;;;3.90;3.53;;;17.80;99.90;;;;;;5046368;28;20237;-65
2021/07/06 02:13:37;;;;;;;4.73;4.03;;;17.90;99.90;;;;;;5045070;28;20233;-65
2021/07/06 02:16:06;;;;;;;4.10;3.80;;;17.80;99.90;;;;;;5034864;28;20239;-65
2021/07/06 02:18:34;;;;;;;4.07;3.77;;;17.80;99.90;;;;;;5046729;28;20247;-65
2021/07/06 02:21:03;;;;;;;4.37;4.07;;;17.80;99.90;;;;;;5038248;28;20239;-65
2021/07/06 02:23:32;;;;;;;4.73;3.90;;;17.80;99.90;;;;;;5026737;28;20237;-65
2021/07/06 02:26:02;;;;;;;6.40;3.70;;;17.80;99.90;;;;;;5026847;28;20377;-67
2021/07/06 02:28:32;;;;;;;5.50;3.60;;;17.80;99.90;;;;;;5027231;28;20755;-65
2021/07/06 02:31:00;;;;;;;4.67;3.90;;;17.80;99.90;;;;;;5033313;28;20803;-65
2021/07/06 02:33:33;;;;;;;4.40;3.87;;;17.80;99.90;;;;;;5046740;28;20245;-65
2021/07/06 02:36:02;;;;;;;5.93;4.27;;;17.70;99.90;;;;;;5046688;28;20686;-64
2021/07/06 02:38:31;;;;;;;6.20;3.83;;;17.70;99.90;;;;;;5062054;28;20449;-65
2021/07/06 02:40:59;;;;;;;4.27;3.80;;;17.70;99.90;;;;;;5046308;28;20748;-65
2021/07/06 02:43:27;;;;;;;4.03;3.63;;;17.70;99.90;;;;;;5046133;28;20241;-65
2021/07/06 02:45:57;;;;;;;3.93;3.63;;;17.60;99.90;;;;;;5033284;28;20296;-65
2021/07/06 02:48:25;;;;;;;4.17;3.57;;;17.60;99.90;;;;;;5027147;28;20234;-65
2021/07/06 02:50:53;;;;;;;5.27;3.90;;;17.60;99.90;;;;;;5033073;28;20241;-65
2021/07/06 02:53:21;;;;;;;4.60;4.20;;;17.60;99.90;;;;;;5050232;28;20235;-65
2021/07/06 02:55:49;;;;;;;6.70;4.10;;;17.60;99.90;;;;;;5044636;28;20236;-65
2021/07/06 02:58:17;;;;;;;4.90;3.63;;;17.60;99.90;;;;;;5030221;28;20236;-65
2021/07/06 03:00:45;;;;;;;4.87;4.00;;;17.60;99.90;;;;;;5050146;28;20330;-64
2021/07/06 03:03:15;;;;;;;5.67;4.20;;;17.60;99.90;;;;;;5049938;28;20228;-64
2021/07/06 03:05:43;;;;;;;5.77;4.60;;;17.60;99.90;;;;;;5044267;28;20234;-65
2021/07/06 03:08:11;;;;;;;4.40;3.97;;;17.60;99.90;;;;;;5030164;28;20233;-65
2021/07/06 03:10:40;;;;;;;4.40;4.00;;;17.60;99.90;;;;;;5033511;28;20264;-65
2021/07/06 03:13:09;;;;;;;5.93;3.80;;;17.50;99.90;;;;;;5049498;28;20230;-66
2021/07/06 03:15:38;;;;;;;6.10;4.30;;;17.50;99.90;;;;;;5029281;28;20777;-65
2021/07/06 03:18:09;;;;;;;4.80;3.80;;;17.50;99.90;;;;;;5029853;28;20238;-64
2021/07/06 03:20:39;;;;;;;6.30;4.00;;;17.50;99.90;;;;;;5036692;28;20266;-64
2021/07/06 03:23:08;;;;;;;4.33;3.80;;;17.50;99.90;;;;;;5029061;28;20267;-65
2021/07/06 03:25:36;;;;;;;4.70;4.00;;;17.50;99.90;;;;;;5029297;28;20579;-65
2021/07/06 03:28:05;;;;;;;4.93;3.77;;;17.50;99.90;;;;;;5029725;28;20291;-65
2021/07/06 03:30:36;;;;;;;3.83;3.53;;;17.50;99.90;;;;;;5032541;28;20717;-66
2021/07/06 03:33:08;;;;;;;3.83;3.53;;;17.50;99.90;;;;;;5064332;28;20290;-65
2021/07/06 03:35:42;;;;;;;4.27;3.70;;;17.50;99.90;;;;;;5049071;28;20643;-64
2021/07/06 03:38:10;;;;;;;3.77;3.30;;;17.50;99.90;;;;;;5049448;28;20236;-65
2021/07/06 03:40:38;;;;;;;4.07;3.60;;;17.60;99.90;;;;;;5043677;28;20230;-65
2021/07/06 03:43:08;;;;;;;3.87;3.40;;;17.60;99.90;;;;;;5029099;28;20264;-65
2021/07/06 03:45:36;;;;;;;4.17;3.70;;;17.60;99.90;;;;;;5043703;28;20256;-65
2021/07/06 03:48:05;;;;;;;4.20;3.43;;;17.60;99.90;;;;;;5028803;28;20237;-65
2021/07/06 03:50:33;;;;;;;3.70;3.50;;;17.60;99.90;;;;;;5028410;28;20234;-65
2021/07/06 03:53:04;;;;;;;3.63;3.20;;;17.60;99.90;;;;;;5028693;28;20234;-65
2021/07/06 03:55:32;;;;;;;3.70;3.40;;;17.70;99.90;;;;;;5032686;28;20655;-65
2021/07/06 03:58:00;;;;;;;3.77;3.47;;;17.70;99.90;;;;;;5049089;28;20240;-65
2021/07/06 04:00:29;;;;;;;4.13;3.83;;;17.80;99.90;;;;;;5045223;28;20236;-65
2021/07/06 04:02:58;;;;;;;4.50;4.10;;;17.80;99.90;;;;;;5028419;28;20659;-65
2021/07/06 04:05:27;;;;;;;7.00;3.90;;;17.80;99.90;;;;;;5031257;28;20661;-65
2021/07/06 04:07:55;;;;;;;5.27;3.43;;;17.80;99.90;;;;;;5049117;28;20242;-65
2021/07/06 04:10:24;;;;;;;3.90;3.47;;;17.90;99.90;;;;;;5034684;28;20288;-65
2021/07/06 04:12:52;;;;;;;6.33;4.23;;;17.90;99.90;;;;;;5028356;28;20239;-65
2021/07/06 04:15:21;;;;;;;5.80;3.77;;;18.00;99.90;;;;;;5028054;28;20706;-64
2021/07/06 04:17:49;;;;;;;4.13;3.80;;;18.00;99.90;;;;;;5029562;28;20716;-65
2021/07/06 04:20:18;;;;;;;4.40;3.93;;;18.00;99.90;;;;;;5035977;28;20288;-65
2021/07/06 04:22:48;;;;;;;4.60;3.60;;;18.00;99.90;;;;;;5028333;28;20284;-65
2021/07/06 04:25:17;;;;;;;4.57;3.43;;;18.00;99.90;;;;;;5030068;28;20259;-65
2021/07/06 04:27:47;;;;;;;4.77;3.30;;;18.00;99.90;;;;;;5048389;28;20598;-65
2021/07/06 04:30:17;;;;;;;4.97;3.23;;;18.10;99.90;;;;;;5048127;28;20650;-65
2021/07/06 04:32:45;;;;;;;5.30;3.60;;;18.10;99.90;;;;;;5043732;28;20724;-65
2021/07/06 04:35:14;;;;;;;4.27;3.37;;;18.10;99.90;;;;;;5047001;28;20238;-65
2021/07/06 04:37:42;;;;;;;3.50;3.20;;;18.20;99.90;;;;;;5028543;28;20674;-65
2021/07/06 04:40:12;;;;;;;4.37;3.37;;;18.20;99.90;;;;;;5028063;28;20242;-65
2021/07/06 04:42:40;;;;;;;3.50;3.17;;;18.20;99.90;;;;;;5047537;28;20250;-65
2021/07/06 04:45:12;;;;;;;3.87;3.50;;;18.20;99.90;;;;;;5044990;28;20287;-65
2021/07/06 04:47:40;;;;;;;4.13;3.50;;;18.30;99.90;;;;;;5028225;28;20250;-65
2021/07/06 04:50:11;;;;;;;3.53;3.23;;;18.30;99.90;;;;;;5028164;28;20242;-65
2021/07/06 04:52:44;;;;;;;4.70;3.23;;;18.30;99.90;;;;;;5046822;28;20627;-65
2021/07/06 04:55:12;;;;;;;3.11;2.91;;;18.40;99.90;;;;;;960608;28;10002267;-65
2021/07/06 04:57:41;;;;;;;4.20;3.20;;;18.50;99.90;;;;;;5044420;28;20246;-65
2021/07/06 05:00:12;;;;;;;5.07;3.50;;;18.60;99.90;;;;;;5047327;28;20577;-65
2021/07/06 05:02:41;;;;;;;4.93;3.07;;;18.70;99.90;;;;;;5047027;28;20253;-65
2021/07/06 05:05:11;;;;;;;3.13;2.93;;;18.80;99.90;;;;;;5046992;28;20328;-65
2021/07/06 05:07:39;;;;;;;2.97;2.73;;;18.90;99.90;;;;;;5027502;28;20247;-65
2021/07/06 05:10:09;;;;;;;5.80;3.27;;;18.90;99.90;;;;;;5026183;28;20239;-65
2021/07/06 05:12:38;;;;;;;4.20;2.70;;;19.00;99.90;;;;;;5046426;28;20511;-65
2021/07/06 05:15:08;;;;;;;6.10;3.20;;;19.00;99.90;;;;;;5029221;28;20230;-65
2021/07/06 05:17:37;;;;;;;4.30;2.73;;;19.10;99.90;;;;;;5008379;28;20592;-65
2021/07/06 05:20:06;;;;;;;6.13;3.37;;;19.10;99.90;;;;;;5049864;28;20284;-65
2021/07/06 05:22:34;;;;;;;4.30;2.70;;;19.30;99.90;;;;;;5046774;28;20269;-65
2021/07/06 05:25:03;;;;;;;5.83;2.63;;;19.30;99.90;;;;;;5047685;28;20241;-65
2021/07/06 05:27:31;;;;;;;4.70;3.00;;;19.40;99.90;;;;;;5027062;28;20235;-65
2021/07/06 05:29:59;;;;;;;4.57;2.80;;;19.40;99.90;;;;;;5027568;28;20236;-65
2021/07/06 05:32:27;;;;;;;3.77;3.00;;;19.30;99.90;;;;;;5026072;28;20695;-65
2021/07/06 05:34:57;;;;;;;3.43;2.97;;;19.30;99.90;;;;;;5027233;28;20235;-65
2021/07/06 05:37:25;;;;;;;4.13;2.90;;;19.20;99.90;;;;;;5025435;28;20254;-67
2021/07/06 05:39:53;;;;;;;3.10;2.50;;;19.10;99.90;;;;;;5027100;28;20249;-67
2021/07/06 05:42:21;;;;;;;2.63;2.43;;;19.10;99.90;;;;;;5028676;28;20719;-64
2021/07/06 05:44:49;;;;;;;5.87;2.53;;;19.10;99.90;;;;;;5026642;28;20718;-64
2021/07/06 05:47:18;;;;;;;4.90;2.70;;;19.10;99.90;;;;;;5025156;28;20242;-64
2021/07/06 05:49:46;;;;;;;3.63;2.53;;;19.10;99.90;;;;;;5031313;28;20243;-64
2021/07/06 05:52:15;;;;;;;2.97;2.40;;;19.10;99.90;;;;;;5044709;28;20291;-64
2021/07/06 05:54:43;;;;;;;2.53;2.30;;;19.20;99.90;;;;;;5045696;28;20878;-64
2021/07/06 05:57:13;;;;;;;4.23;2.40;;;19.30;99.90;;;;;;5027416;28;20247;-64
2021/07/06 05:59:41;;;;;;;3.13;2.30;;;19.50;99.90;;;;;;5025442;28;20256;-64
2021/07/06 06:02:09;;;;;;;3.00;2.17;;;20.00;99.90;;;;;;5041390;28;20250;-64
2021/07/06 06:04:37;;;;;;;2.23;2.00;;;20.40;99.90;;;;;;5027622;28;20703;-64
2021/07/06 06:07:05;;;;;;;2.77;2.20;;;20.60;99.90;;;;;;5039298;28;20234;-64
2021/07/06 06:09:35;;;;;;;4.80;2.27;;;20.50;99.90;;;;;;5024725;28;20735;-64
2021/07/06 06:12:03;;;;;;;2.03;1.87;;;20.40;99.90;;;;;;5028780;28;20642;-64
2021/07/06 06:14:32;;;;;;;3.97;2.10;;;20.40;99.90;;;;;;5024554;28;20228;-64
2021/07/06 06:17:00;;;;;;;2.73;1.87;;;20.40;99.90;;;;;;5040569;28;20331;-64
2021/07/06 06:19:28;;;;;;;2.27;2.03;;;20.30;99.90;;;;;;5042468;28;20239;-64
2021/07/06 06:21:56;;;;;;;2.20;1.77;;;20.30;99.90;;;;;;5029472;28;20242;-64
2021/07/06 06:24:25;;;;;;;3.57;2.20;;;20.30;99.90;;;;;;5024841;28;20239;-64
2021/07/06 06:26:54;;;;;;;3.77;1.83;;;20.30;99.90;;;;;;5028251;28;20732;-64
2021/07/06 06:29:22;;;;;;;2.27;2.03;;;20.30;99.90;;;;;;5028595;28;20298;-65
2021/07/06 06:31:54;;;;;;;1.97;1.87;;;20.40;99.90;;;;;;5028163;28;20250;-64
2021/07/06 06:34:23;;;;;;;2.63;1.70;;;20.50;99.90;;;;;;5029822;28;20254;-64
2021/07/06 06:36:51;;;;;;;5.53;1.80;;;20.90;99.90;;;;;;5029772;28;20267;-63
2021/07/06 06:39:20;;;;;;;1.90;1.53;;;21.50;99.90;;;;;;5030466;28;20702;-64
2021/07/06 06:41:48;;;;;;;2.33;1.40;;;21.90;99.90;;;;;;5033521;28;20595;-64
2021/07/06 06:44:17;;;;;;;1.60;1.50;;;22.10;99.90;;;;;;5030247;28;20239;-64
2021/07/06 06:46:46;;;;;;;3.67;1.50;;;22.10;99.90;;;;;;5043706;28;20759;-64
2021/07/06 06:49:17;;;;;;;2.60;1.60;;;21.90;99.90;;;;;;5046399;28;20243;-64
2021/07/06 06:51:45;;;;;;;1.50;1.40;;;21.80;99.90;;;;;;5029752;28;20236;-64
2021/07/06 06:54:13;;;;;;;2.27;1.33;;;21.70;99.90;;;;;;5029663;28;20243;-64
2021/07/06 06:56:43;;;;;;;3.20;1.27;;;21.90;99.90;;;;;;5033477;28;20275;-64
2021/07/06 06:59:13;;;;;;;3.93;1.40;;;22.00;99.90;;;;;;5029466;28;20239;-62
2021/07/06 07:01:44;;;;;;;4.13;1.53;;;22.40;99.90;;;;;;5033507;28;20251;-62
2021/07/06 07:04:14;;;;;;;3.50;1.37;;;22.70;99.90;;;;;;5029760;28;20674;-62
2021/07/06 07:06:42;;;;;;;1.33;1.23;;;22.60;99.90;;;;;;5042681;28;20240;-61
2021/07/06 07:09:12;;;;;;;2.87;1.20;;;22.70;99.90;;;;;;5038636;28;23038;-61
2021/07/06 07:11:40;;;;;;;1.43;1.30;;;22.90;99.90;;;;;;5031256;28;20577;-61
2021/07/06 07:14:08;;;;;;;3.53;1.30;;;22.80;99.90;;;;;;5027696;28;20246;-61
2021/07/06 07:16:36;;;;;;;1.47;1.17;;;23.00;99.90;;;;;;5031048;28;20659;-61
2021/07/06 07:19:05;;;;;;;3.37;1.33;;;23.20;99.90;;;;;;5027614;28;20251;-61
2021/07/06 07:21:33;;;;;;;1.40;1.30;;;23.30;99.90;;;;;;5030498;28;20237;-61
2021/07/06 07:24:02;;;;;;;2.50;1.20;;;23.30;99.90;;;;;;5027144;28;20232;-61
2021/07/06 07:26:30;;;;;;;2.50;1.10;;;23.40;99.90;;;;;;5027443;28;20236;-61
2021/07/06 07:28:58;;;;;;;3.73;1.40;;;23.40;99.90;;;;;;5029306;28;20236;-61
2021/07/06 07:31:26;;;;;;;2.00;1.13;;;23.20;99.90;;;;;;5027858;28;20283;-61
2021/07/06 07:33:54;;;;;;;1.53;1.20;;;23.30;99.90;;;;;;5028740;28;20239;-61
2021/07/06 07:36:24;;;;;;;1.30;1.20;;;23.70;99.90;;;;;;5038841;28;20600;-61
2021/07/06 07:38:52;;;;;;;2.17;1.10;;;24.20;99.90;;;;;;5039688;28;20772;-61
2021/07/06 07:41:20;;;;;;;1.40;1.10;;;24.40;99.90;;;;;;5033462;28;20233;-61
2021/07/06 07:43:49;;;;;;;3.00;1.10;;;24.90;99.90;;;;;;5028068;28;20247;-61
2021/07/06 07:46:17;;;;;;;2.20;1.10;;;25.20;99.90;;;;;;5034343;28;20324;-61
2021/07/06 07:48:46;;;;;;;1.83;0.90;;;25.30;99.90;;;;;;5026048;28;20587;-61
2021/07/06 07:51:14;;;;;;;2.03;1.30;;;25.40;99.90;;;;;;5034608;28;20317;-61
2021/07/06 07:53:44;;;;;;;1.23;1.00;;;25.50;99.90;;;;;;5036943;28;20705;-61
2021/07/06 07:56:13;;;;;;;1.30;1.20;;;25.50;99.90;;;;;;5034621;28;20261;-61
2021/07/06 07:58:41;;;;;;;1.43;0.80;;;25.60;99.90;;;;;;5045935;28;20242;-61
2021/07/06 08:01:09;;;;;;;1.67;1.00;;;25.30;99.90;;;;;;5030401;28;20311;-61
2021/07/06 08:03:37;;;;;;;1.17;1.00;;;25.00;99.90;;;;;;5026232;28;20619;-62
2021/07/06 08:06:05;;;;;;;2.73;1.00;;;24.60;99.90;;;;;;5033799;28;20290;-61
2021/07/06 08:08:33;;;;;;;1.47;1.00;;;24.50;99.90;;;;;;5035336;28;20234;-61
2021/07/06 08:11:02;;;;;;;3.53;1.03;;;24.30;99.90;;;;;;5025020;28;20347;-61
2021/07/06 08:13:33;;;;;;;1.43;1.07;;;24.30;99.90;;;;;;5025659;28;20708;-61
2021/07/06 08:16:02;;;;;;;3.07;1.10;;;24.50;99.90;;;;;;5033466;28;20288;-61
2021/07/06 08:18:30;;;;;;;2.80;1.10;;;25.20;99.90;;;;;;5045847;28;20704;-61
2021/07/06 08:20:58;;;;;;;1.50;1.03;;;25.50;99.90;;;;;;5037351;28;20689;-61
2021/07/06 08:23:26;;;;;;;3.33;1.30;;;25.40;99.90;;;;;;5025776;28;20241;-63
2021/07/06 08:25:54;;;;;;;4.67;1.10;;;25.00;99.90;;;;;;5025408;28;20244;-63
2021/07/06 08:28:26;;;;;;;2.67;1.27;;;24.20;99.90;;;;;;5025984;28;20245;-64
2021/07/06 08:30:54;;;;;;;2.67;1.50;;;23.60;99.90;;;;;;5031119;28;20244;-63
2021/07/06 08:33:22;;;;;;;2.50;1.47;;;23.00;99.90;;;;;;5044330;28;20270;-66
2021/07/06 08:35:51;;;;;;;5.03;1.57;;;22.70;99.90;;;;;;5044154;28;20626;-63
2021/07/06 08:38:19;;;;;;;3.73;1.60;;;22.50;99.90;;;;;;5044347;28;20700;-63
2021/07/06 08:40:50;;;;;;;2.90;1.60;;;22.30;99.90;;;;;;5037478;28;20700;-63
2021/07/06 08:43:19;;;;;;;3.13;1.37;;;22.30;99.90;;;;;;5023955;28;20274;-63
2021/07/06 08:45:49;;;;;;;2.60;1.50;;;22.30;99.90;;;;;;5023993;28;20724;-63
2021/07/06 08:48:17;;;;;;;4.07;1.60;;;22.30;99.90;;;;;;5021627;28;20283;-63
2021/07/06 08:50:46;;;;;;;3.57;1.80;;;22.30;99.90;;;;;;5023187;28;20240;-63
2021/07/06 08:53:14;;;;;;;5.57;1.90;;;22.50;99.90;;;;;;5022125;28;20319;-63
2021/07/06 08:55:43;;;;;;;5.40;1.80;;;22.70;99.90;;;;;;5024631;28;20323;-63
2021/07/06 08:58:11;;;;;;;3.23;1.43;;;23.10;99.90;;;;;;5022618;28;20647;-63
2021/07/06 09:00:39;;;;;;;2.17;1.50;;;23.50;99.90;;;;;;5022885;28;20729;-63
2021/07/06 09:03:11;;;;;;;2.63;1.50;;;23.90;99.90;;;;;;5025026;28;20687;-63
2021/07/06 09:05:39;;;;;;;2.47;1.50;;;24.20;99.90;;;;;;5025093;28;20317;-63
2021/07/06 09:08:10;;;;;;;5.17;1.63;;;24.30;99.90;;;;;;5024871;28;20237;-63
2021/07/06 09:10:40;;;;;;;3.70;1.53;;;24.60;99.90;;;;;;5028672;28;20730;-63
2021/07/06 09:13:19;;;;;;;3.80;1.50;;;24.90;99.90;;;;;;5028790;28;20704;-63
2021/07/06 09:15:52;;;;;;;3.27;1.40;;;25.00;99.90;;;;;;5024581;28;20605;-64
2021/07/06 09:18:23;;;;;;;2.80;1.20;;;25.10;99.90;;;;;;5024629;28;20280;-63
2021/07/06 09:21:03;;;;;;;2.70;1.40;;;25.10;99.90;;;;;;5023553;28;20241;-64
2021/07/06 09:23:34;;;;;;;1.80;1.60;;;25.00;99.90;;;;;;5016770;28;20319;-64
2021/07/06 09:26:14;;;;;;;2.33;1.70;;;25.00;99.90;;;;;;5024048;28;20251;-64
2021/07/06 09:28:43;;;;;;;2.20;1.57;;;25.00;99.90;;;;;;5018708;28;20705;-64
2021/07/06 09:31:17;;;;;;;1.93;1.50;;;25.30;99.90;;;;;;5023773;28;20244;-64
2021/07/06 09:34:00;;;;;;;1.77;1.33;;;25.40;99.90;;;;;;5024081;28;20234;-64
2021/07/06 09:36:34;;;;;;;1.73;1.30;;;25.80;99.90;;;;;;5024094;28;20605;-64
2021/07/06 09:39:10;;;;;;;1.83;1.43;;;26.00;99.90;;;;;;5024503;28;20733;-64
2021/07/06 09:41:40;;;;;;;2.17;1.30;;;26.00;99.90;;;;;;5023614;28;20325;-64
2021/07/06 09:44:19;;;;;;;4.43;1.47;;;26.40;99.90;;;;;;5024666;28;20240;-64
2021/07/06 09:46:53;;;;;;;3.30;1.53;;;26.60;99.90;;;;;;5023995;28;20264;-64
2021/07/06 09:49:24;;;;;;;2.13;1.33;;;26.40;99.90;;;;;;5022042;28;20231;-64
2021/07/06 09:51:58;;;;;;;4.07;1.40;;;26.20;99.90;;;;;;5022951;28;20230;-64
2021/07/06 09:54:31;;;;;;;1.77;1.47;;;26.10;99.90;;;;;;5015196;28;20241;-64
2021/07/06 09:57:04;;;;;;;1.20;1.10;;;25.80;99.90;;;;;;5024125;28;20243;-64
2021/07/06 09:59:33;;;;;;;3.43;1.70;;;25.80;99.90;;;;;;5018405;28;20251;-64
2021/07/06 10:02:03;;;;;;;2.00;1.50;;;25.60;99.90;;;;;;5029890;28;20239;-64
2021/07/06 10:04:35;;;;;;;2.20;1.30;;;25.40;99.90;;;;;;5029725;28;20239;-64
2021/07/06 10:07:06;;;;;;;1.60;1.37;;;25.30;99.90;;;;;;5029403;28;20372;-64
2021/07/06 10:09:35;;;;;;;2.00;1.50;;;25.20;99.90;;;;;;5028974;28;20300;-64
2021/07/06 10:12:04;;;;;;;2.63;1.30;;;25.00;99.90;;;;;;5027401;28;20240;-64
2021/07/06 10:14:33;;;;;;;5.07;1.50;;;24.90;99.90;;;;;;5025773;28;20288;-64
2021/07/06 10:17:02;;;;;;;2.43;1.53;;;24.80;99.90;;;;;;5028955;28;20768;-64
2021/07/06 10:19:30;;;;;;;1.47;1.33;;;24.60;99.90;;;;;;5028328;28;20257;-64
2021/07/06 10:22:00;;;;;;;2.80;1.70;;;24.60;99.90;;;;;;5027303;28;20237;-64
2021/07/06 10:24:28;;;;;;;2.17;1.50;;;24.40;99.90;;;;;;5025425;28;20238;-64
2021/07/06 10:26:59;;;;;;;3.70;1.70;;;24.40;99.90;;;;;;5028275;28;20245;-64
2021/07/06 10:29:32;;;;;;;2.50;1.30;;;24.20;99.90;;;;;;5028102;28;20244;-64
2021/07/06 10:32:00;;;;;;;3.27;1.60;;;23.90;99.90;;;;;;5027046;28;20643;-64
2021/07/06 10:34:29;;;;;;;1.70;1.50;;;23.70;99.90;;;;;;5027163;28;20698;-64
2021/07/06 10:36:59;;;;;;;5.13;1.47;;;23.50;99.90;;;;;;5028381;28;20521;-64
2021/07/06 10:39:45;;;;;;;4.23;1.10;;;23.30;99.90;;;;;;5027890;28;20238;-65
2021/07/06 10:42:14;;;;;;;1.13;0.90;;;22.90;99.90;;;;;;5027519;28;20244;-65
2021/07/06 10:44:43;;;;;;;1.03;0.70;;;22.70;99.90;;;;;;5028092;28;20271;-64
2021/07/06 10:47:37;;;;;;;1.97;0.87;;;22.50;99.90;;;;;;5027944;28;20639;-65
2021/07/06 10:50:26;;;;;;;1.20;0.80;;;22.40;99.90;;;;;;5028100;28;20318;-65
2021/07/06 10:53:14;;;;;;;0.93;0.70;;;22.40;99.90;;;;;;5020660;28;20268;-64
2021/07/06 10:55:45;;;;;;;1.27;0.90;;;22.50;99.90;;;;;;5012954;28;20806;-64
2021/07/06 10:58:49;;;;;;;1.67;1.00;;;22.50;99.90;;;;;;5029025;28;20322;-64
2021/07/06 11:01:53;;;;;;;1.43;1.10;;;22.60;99.90;;;;;;5026364;28;20707;-64
2021/07/06 11:05:02;;;;;;;5.03;1.50;;;22.70;99.90;;;;;;5025865;28;20263;-64
2021/07/06 11:07:55;;;;;;;2.50;1.37;;;22.50;99.90;;;;;;5027390;28;20328;-65
2021/07/06 11:10:38;;;;;;;2.93;1.43;;;22.50;99.90;;;;;;5014657;28;20281;-63
2021/07/06 11:13:19;;;;;;;2.73;1.60;;;22.60;99.90;;;;;;5045076;28;20262;-63
2021/07/06 11:15:47;;;;;;;2.13;1.50;;;22.60;99.90;;;;;;5043270;28;20243;-63
2021/07/06 11:18:16;;;;;;;3.23;1.50;;;22.60;99.90;;;;;;5043887;28;20241;-63
2021/07/06 11:20:49;;;;;;;2.23;1.30;;;22.70;99.90;;;;;;5029387;28;20384;-63
2021/07/06 11:23:21;;;;;;;3.37;1.53;;;22.80;99.90;;;;;;5024356;28;20246;-63
2021/07/06 11:26:00;;;;;;;2.20;1.30;;;22.90;99.90;;;;;;5031116;28;20239;-63
2021/07/06 11:28:30;;;;;;;2.47;1.40;;;22.80;99.90;;;;;;5045386;28;20245;-63
2021/07/06 11:30:59;;;;;;;2.70;1.70;;;22.80;99.90;;;;;;5035048;28;20232;-63
2021/07/06 11:33:40;;;;;;;1.80;1.30;;;22.80;99.90;;;;;;5046052;28;20239;-63
2021/07/06 11:36:18;;;;;;;3.13;1.40;;;22.70;99.90;;;;;;5037808;28;20228;-63
2021/07/06 11:38:48;;;;;;;2.40;1.30;;;22.60;99.90;;;;;;5026438;28;20258;-63
2021/07/06 11:41:18;;;;;;;1.53;1.20;;;22.60;99.90;;;;;;5034517;28;20240;-63
2021/07/06 11:43:48;;;;;;;3.33;1.33;;;22.70;99.90;;;;;;5006560;28;20245;-63
2021/07/06 11:46:17;;;;;;;3.43;1.50;;;22.70;99.90;;;;;;5025326;28;20243;-63
2021/07/06 11:48:47;;;;;;;1.77;1.27;;;22.70;99.90;;;;;;5046405;28;20321;-63
2021/07/06 11:51:19;;;;;;;1.60;1.10;;;22.80;99.90;;;;;;5045356;28;20243;-63
2021/07/06 11:53:55;;;;;;;2.03;1.13;;;22.80;99.90;;;;;;5046003;28;20638;-63
2021/07/06 11:56:30;;;;;;;1.50;1.40;;;22.90;99.90;;;;;;5034339;28;20332;-63
2021/07/06 11:58:59;;;;;;;1.40;1.00;;;22.90;99.90;;;;;;5026450;28;20242;-63
2021/07/06 12:01:28;;;;;;;3.37;1.10;;;22.90;99.90;;;;;;5031798;28;20549;-63
2021/07/06 12:03:56;;;;;;;1.30;1.00;;;23.00;99.90;;;;;;5006256;28;20252;-63
2021/07/06 12:06:28;;;;;;;2.70;0.90;;;23.00;99.90;;;;;;5026692;28;20298;-63
2021/07/06 12:08:56;;;;;;;1.33;1.00;;;23.10;99.90;;;;;;5040573;28;20585;-63
2021/07/06 12:11:25;;;;;;;1.33;0.87;;;23.00;99.90;;;;;;5023789;28;20588;-62
2021/07/06 12:13:55;;;;;;;2.20;1.10;;;22.90;99.90;;;;;;5025975;28;20244;-63
2021/07/06 12:16:26;;;;;;;1.37;1.00;;;22.70;99.90;;;;;;5036205;28;20240;-63
2021/07/06 12:18:57;;;;;;;2.23;0.90;;;22.70;99.90;;;;;;5046213;28;20240;-63
2021/07/06 12:21:27;;;;;;;0.70;0.70;;;22.70;99.90;;;;;;5034252;28;20319;-63
2021/07/06 12:23:57;;;;;;;2.00;1.00;;;22.70;99.90;;;;;;5025861;28;20688;-62
2021/07/06 12:26:26;;;;;;;3.73;0.90;;;22.70;99.90;;;;;;5031192;28;20294;-63
2021/07/06 12:28:55;;;;;;;1.97;0.90;;;22.70;99.90;;;;;;5026139;28;20758;-63
2021/07/06 12:31:29;;;;;;;2.83;0.93;;;22.60;99.90;;;;;;5025238;28;20237;-63
2021/07/06 12:34:02;;;;;;;1.00;0.87;;;22.70;99.90;;;;;;5026001;28;20239;-63
2021/07/06 12:36:32;;;;;;;1.70;0.90;;;22.80;99.90;;;;;;5036710;28;20243;-63
2021/07/06 12:39:21;;;;;;;2.33;0.80;;;22.90;99.90;;;;;;5045601;28;20601;-63
2021/07/06 12:41:52;;;;;;;3.07;1.10;;;22.90;99.90;;;;;;5030724;28;20779;-63
2021/07/06 12:44:31;;;;;;;0.80;0.80;;;22.90;99.90;;;;;;5006311;28;20545;-63
2021/07/06 12:47:17;;;;;;;2.50;0.70;;;22.90;99.90;;;;;;5033956;28;20297;-63
2021/07/06 12:49:47;;;;;;;1.10;0.80;;;23.00;99.90;;;;;;5044356;28;20236;-63
2021/07/06 12:52:15;;;;;;;0.77;0.70;;;22.90;99.90;;;;;;5027116;28;20320;-63
2021/07/06 12:54:45;;;;;;;1.30;0.83;;;22.90;99.90;;;;;;5025242;28;20335;-63
2021/07/06 12:57:23;;;;;;;1.40;0.70;;;23.00;99.90;;;;;;5042550;28;21397;-62
2021/07/06 12:59:51;;;;;;;1.70;0.63;;;23.00;99.90;;;;;;5045211;28;20273;-63
2021/07/06 13:02:22;;;;;;;1.03;0.70;;;23.10;99.90;;;;;;5044163;28;20266;-63
2021/07/06 13:04:57;;;;;;;2.60;0.70;;;23.00;99.90;;;;;;5045397;28;20239;-63